createdAt,value
2022-11-20T00:00:54.509Z,99902.13
2022-11-20T00:01:56.155Z,99897.44
2022-11-20T00:02:57.745Z,99899.09
2022-11-20T00:04:01.841Z,99896.91
2022-11-20T00:05:03.297Z,99895.75
2022-11-20T00:06:05.564Z,99892.72
2022-11-20T00:07:08.442Z,99901.31
2022-11-20T00:08:11.499Z,99899.34
2022-11-20T00:09:13.017Z,99895.75
2022-11-20T00:10:14.454Z,99894.06
2022-11-20T00:11:17.303Z,99905.75
2022-11-20T00:12:18.843Z,99904.25
2022-11-20T00:13:23.514Z,99902.91
2022-11-20T00:14:25.130Z,99902.91
2022-11-20T00:15:30.523Z,99913.75
2022-11-20T00:16:34.986Z,99906.28
2022-11-20T00:17:36.576Z,99914.59
2022-11-20T00:18:38.202Z,99919.63
2022-11-20T00:19:39.766Z,99915.19
2022-11-20T00:20:41.304Z,99911.31
2022-11-20T00:21:42.783Z,99903.81
2022-11-20T00:22:46.985Z,99909.38
2022-11-20T00:23:50.620Z,99912.97
2022-11-20T00:24:52.105Z,99909.09
2022-11-20T00:26:02.340Z,99906.34
2022-11-20T00:27:04.435Z,99902.44
2022-11-20T00:28:10.042Z,99901.63
2022-11-20T00:29:11.830Z,99908.00
2022-11-20T00:30:21.031Z,99908.84
2022-11-20T00:31:22.594Z,99905.22
2022-11-20T00:32:24.092Z,99908.00
2022-11-20T00:33:28.840Z,99906.91
2022-11-20T00:34:30.319Z,99896.63
2022-11-20T00:35:49.862Z,99894.69
2022-11-20T00:36:51.367Z,99893.03
2022-11-20T00:37:52.867Z,99897.47
2022-11-20T00:39:02.382Z,99892.19
2022-11-20T00:40:03.987Z,99898.56
2022-11-20T00:41:08.799Z,99903.28
2022-11-20T00:43:26.730Z,99899.94
2022-11-20T00:44:37.054Z,99897.44
2022-11-20T00:45:38.522Z,99902.97
2022-11-20T00:46:42.629Z,99902.97
2022-11-20T00:48:11.502Z,99904.66
2022-11-20T00:49:21.795Z,99904.66
2022-11-20T00:50:23.405Z,99891.63
2022-11-20T00:51:30.062Z,99899.09
2022-11-20T00:53:03.047Z,99889.66
2022-11-20T00:54:04.510Z,99894.13
2022-11-20T00:55:06.225Z,99895.22
2022-11-20T00:56:08.482Z,99896.59
2022-11-20T00:57:09.922Z,99887.69
2022-11-20T00:58:14.318Z,99879.09
2022-11-20T00:59:16.042Z,99885.16
2022-11-20T01:01:33.122Z,99896.84
2022-11-20T01:02:37.759Z,99883.81
2022-11-20T01:03:40.484Z,99882.97
2022-11-20T01:04:44.322Z,99880.75
2022-11-20T01:05:48.880Z,99887.16
2022-11-20T01:06:50.469Z,99883.53
2022-11-20T01:07:57.847Z,99882.44
2022-11-20T01:09:02.311Z,99871.34
2022-11-20T01:10:04.601Z,99876.06
2022-11-20T01:11:16.196Z,99884.38
2022-11-20T01:12:25.049Z,99878.56
2022-11-20T01:13:38.933Z,99873.00
2022-11-20T01:14:40.518Z,99879.41
2022-11-20T01:15:42.039Z,99884.13
2022-11-20T01:16:49.703Z,99880.75
2022-11-20T01:17:51.158Z,99888.00
2022-11-20T01:18:53.242Z,99885.75
2022-11-20T01:19:56.989Z,99888.25
2022-11-20T01:21:05.089Z,99891.88
2022-11-20T01:22:06.582Z,99886.31
2022-11-20T01:23:08.062Z,99887.41
2022-11-20T01:24:14.007Z,99886.31
2022-11-20T01:25:16.960Z,99886.31
2022-11-20T01:26:27.375Z,99882.97
2022-11-20T01:27:31.800Z,99881.03
2022-11-20T01:28:35.844Z,99888.25
2022-11-20T01:29:37.294Z,99890.19
2022-11-20T01:30:39.920Z,99880.75
2022-11-20T01:31:41.453Z,99881.59
2022-11-20T01:32:43.475Z,99886.31
2022-11-20T01:33:45.325Z,99884.66
2022-11-20T01:34:48.841Z,99880.19
2022-11-20T01:35:50.495Z,99877.41
2022-11-20T01:36:54.006Z,99881.28
2022-11-20T01:38:01.097Z,99894.91
2022-11-20T01:40:19.376Z,99887.41
2022-11-20T01:41:39.519Z,99887.69
2022-11-20T01:43:25.286Z,99886.84
2022-11-20T01:44:45.573Z,99893.22
2022-11-20T01:45:49.871Z,99897.69
2022-11-20T01:47:00.607Z,99880.19
2022-11-20T01:48:04.165Z,99880.75
2022-11-20T01:49:09.006Z,99882.44
2022-11-20T01:50:12.686Z,99876.91
2022-11-20T01:51:17.482Z,99879.66
2022-11-20T01:52:23.683Z,99878.56
2022-11-20T01:53:26.512Z,99878.56
2022-11-20T01:55:51.345Z,99872.75
2022-11-20T01:57:01.499Z,99872.75
2022-11-20T01:58:02.974Z,99875.28
2022-11-20T01:59:04.954Z,99871.66
2022-11-20T02:00:07.470Z,99868.88
2022-11-20T02:01:16.963Z,99863.59
2022-11-20T02:02:18.449Z,99872.75
2022-11-20T02:03:27.589Z,99876.91
2022-11-20T02:04:29.100Z,99872.19
2022-11-20T02:05:46.570Z,99874.38
2022-11-20T02:06:49.423Z,99871.59
2022-11-20T02:07:50.922Z,99874.38
2022-11-20T02:08:53.342Z,99864.94
2022-11-20T02:09:58.529Z,99875.22
2022-11-20T02:11:00.415Z,99876.91
2022-11-20T02:12:02.036Z,99870.25
2022-11-20T02:14:38.467Z,99879.94
2022-11-20T02:15:42.683Z,99880.75
2022-11-20T02:16:47.585Z,99880.75
2022-11-20T02:17:49.269Z,99876.91
2022-11-20T02:18:50.934Z,99866.63
2022-11-20T02:19:52.430Z,99873.00
2022-11-20T02:21:08.283Z,99870.25
2022-11-20T02:22:20.516Z,99871.06
2022-11-20T02:24:37.411Z,99876.38
2022-11-20T02:25:40.531Z,99870.81
2022-11-20T02:26:45.443Z,99864.16
2022-11-20T02:27:47.695Z,99868.63
2022-11-20T02:28:49.177Z,99868.63
2022-11-20T02:30:04.020Z,99864.44
2022-11-20T02:31:05.494Z,99854.16
2022-11-20T02:32:39.869Z,99862.50
2022-11-20T02:33:41.366Z,99854.16
2022-11-20T02:34:42.837Z,99852.47
2022-11-20T02:35:44.875Z,99851.38
2022-11-20T02:36:46.314Z,99850.28
2022-11-20T02:37:48.734Z,99844.72
2022-11-20T02:38:50.809Z,99851.97
2022-11-20T02:39:52.359Z,99848.13
2022-11-20T02:41:00.946Z,99853.66
2022-11-20T02:42:03.043Z,99853.66
2022-11-20T02:43:04.487Z,99850.06
2022-11-20T02:44:08.805Z,99852.81
2022-11-20T02:45:10.782Z,99849.19
2022-11-20T02:46:14.726Z,99850.06
2022-11-20T02:47:16.518Z,99853.66
2022-11-20T02:48:17.984Z,99835.69
2022-11-20T02:49:19.968Z,99858.59
2022-11-20T02:50:21.762Z,99850.28
2022-11-20T02:51:25.937Z,99853.91
2022-11-20T02:52:27.422Z,99851.13
2022-11-20T02:53:28.858Z,99862.22
2022-11-20T02:54:33.081Z,99855.84
2022-11-20T02:55:40.491Z,99854.16
2022-11-20T02:56:42.478Z,99858.88
2022-11-20T02:57:44.039Z,99856.09
2022-11-20T02:58:45.495Z,99849.72
2022-11-20T02:59:47.018Z,99847.78
2022-11-20T03:00:48.546Z,99857.78
2022-11-20T03:01:50.008Z,99849.44
2022-11-20T03:02:51.480Z,99849.44
2022-11-20T03:03:56.928Z,99843.91
2022-11-20T03:04:58.376Z,99855.84
2022-11-20T03:06:09.230Z,99856.69
2022-11-20T03:07:16.809Z,99853.06
2022-11-20T03:08:18.491Z,99859.44
2022-11-20T03:09:20.149Z,99862.22
2022-11-20T03:10:24.509Z,99855.84
2022-11-20T03:11:25.990Z,99855.00
2022-11-20T03:12:27.490Z,99856.34
2022-11-20T03:13:29.503Z,99859.13
2022-11-20T03:14:36.984Z,99856.34
2022-11-20T03:15:38.585Z,99859.97
2022-11-20T03:16:40.153Z,99860.22
2022-11-20T03:17:41.650Z,99854.69
2022-11-20T03:18:43.168Z,99865.53
2022-11-20T03:19:46.515Z,99857.19
2022-11-20T03:20:48.082Z,99852.47
2022-11-20T03:21:49.558Z,99859.72
2022-11-20T03:22:51.087Z,99848.88
2022-11-20T03:23:53.790Z,99851.38
2022-11-20T03:25:01.040Z,99850.28
2022-11-20T03:26:09.474Z,99838.34
2022-11-20T03:27:10.945Z,99844.72
2022-11-20T03:28:12.494Z,99840.00
2022-11-20T03:29:13.963Z,99846.94
2022-11-20T03:30:16.107Z,99845.00
2022-11-20T03:31:17.876Z,99849.97
2022-11-20T03:32:19.380Z,99849.13
2022-11-20T03:33:20.899Z,99846.34
2022-11-20T03:34:25.446Z,99851.66
2022-11-20T03:35:27.288Z,99845.25
2022-11-20T03:36:31.802Z,99850.81
2022-11-20T03:37:33.558Z,99851.66
2022-11-20T03:38:38.088Z,99851.66
2022-11-20T03:39:39.518Z,99848.59
2022-11-20T03:40:41.054Z,99853.59
2022-11-20T03:41:45.809Z,99852.47
2022-11-20T03:42:47.360Z,99859.72
2022-11-20T03:43:58.574Z,99847.78
2022-11-20T03:45:00.030Z,99853.31
2022-11-20T03:46:01.623Z,99852.22
2022-11-20T03:47:05.801Z,99851.13
2022-11-20T03:48:07.293Z,99847.50
2022-11-20T03:49:17.561Z,99852.22
2022-11-20T03:50:19.529Z,99855.00
2022-11-20T03:51:21.832Z,99851.38
2022-11-20T03:52:23.291Z,99855.00
2022-11-20T03:53:43.287Z,99851.66
2022-11-20T03:54:46.810Z,99848.88
2022-11-20T03:55:58.947Z,99855.25
2022-11-20T03:57:00.533Z,99850.81
2022-11-20T03:58:02.080Z,99845.25
2022-11-20T03:59:08.933Z,99845.25
2022-11-20T04:00:10.759Z,99840.53
2022-11-20T04:01:17.433Z,99840.81
2022-11-20T04:02:26.354Z,99832.22
2022-11-20T04:03:37.210Z,99832.47
2022-11-20T04:04:41.398Z,99825.81
2022-11-20T04:05:42.833Z,99824.72
2022-11-20T04:06:44.325Z,99829.19
2022-11-20T04:07:45.815Z,99828.34
2022-11-20T04:08:53.404Z,99836.66
2022-11-20T04:09:55.257Z,99834.16
2022-11-20T04:10:56.701Z,99831.38
2022-11-20T04:11:58.138Z,99833.56
2022-11-20T04:12:59.646Z,99832.47
2022-11-20T04:14:02.309Z,99835.50
2022-11-20T04:15:03.901Z,99836.34
2022-11-20T04:16:13.902Z,99840.22
2022-11-20T04:17:15.553Z,99841.34
2022-11-20T04:18:17.007Z,99834.69
2022-11-20T04:19:18.789Z,99826.34
2022-11-20T04:20:20.674Z,99841.91
2022-11-20T04:22:38.554Z,99834.16
2022-11-20T04:23:43.146Z,99835.81
2022-11-20T04:24:45.782Z,99823.63
2022-11-20T04:25:53.447Z,99826.97
2022-11-20T04:26:55.033Z,99822.53
2022-11-20T04:27:56.491Z,99823.34
2022-11-20T04:28:58.199Z,99827.25
2022-11-20T04:30:01.587Z,99828.06
2022-11-20T04:31:09.425Z,99823.63
2022-11-20T04:32:10.973Z,99828.06
2022-11-20T04:33:12.414Z,99828.34
2022-11-20T04:34:13.936Z,99823.63
2022-11-20T04:35:15.589Z,99816.41
2022-11-20T04:36:20.010Z,99831.94
2022-11-20T04:37:21.537Z,99833.88
2022-11-20T04:38:25.379Z,99824.72
2022-11-20T04:39:52.106Z,99827.50
2022-11-20T04:40:56.792Z,99825.56
2022-11-20T04:42:19.466Z,99822.53
2022-11-20T04:43:20.923Z,99820.84
2022-11-20T04:44:24.982Z,99822.53
2022-11-20T04:45:26.431Z,99818.66
2022-11-20T04:46:28.040Z,99817.81
2022-11-20T04:47:34.881Z,99819.50
2022-11-20T04:49:52.119Z,99813.09
2022-11-20T04:50:53.689Z,99811.41
2022-11-20T04:51:55.135Z,99810.09
2022-11-20T04:52:56.609Z,99817.56
2022-11-20T04:53:58.551Z,99826.97
2022-11-20T04:55:02.771Z,99819.50
2022-11-20T04:56:04.806Z,99813.09
2022-11-20T04:57:10.018Z,99814.81
2022-11-20T04:58:26.971Z,99814.81
2022-11-20T04:59:28.593Z,99814.81
2022-11-20T05:00:36.183Z,99814.81
2022-11-20T05:01:37.661Z,99810.09
2022-11-20T05:02:41.651Z,99814.81
2022-11-20T05:03:43.567Z,99815.63
2022-11-20T05:04:46.552Z,99810.09
2022-11-20T05:05:57.119Z,99795.94
2022-11-20T05:06:58.589Z,99801.50
2022-11-20T05:08:02.412Z,99799.81
2022-11-20T05:09:03.906Z,99800.66
2022-11-20T05:10:05.598Z,99797.63
2022-11-20T05:11:13.943Z,99804.00
2022-11-20T05:12:24.347Z,99803.16
2022-11-20T05:13:25.830Z,99795.94
2022-11-20T05:14:27.345Z,99813.69
2022-11-20T05:15:30.955Z,99812.88
2022-11-20T05:16:32.529Z,99810.31
2022-11-20T05:17:36.145Z,99815.28
2022-11-20T05:18:37.664Z,99810.84
2022-11-20T05:19:42.309Z,99816.97
2022-11-20T05:20:43.763Z,99808.06
2022-11-20T05:21:45.321Z,99808.06
2022-11-20T05:22:46.834Z,99808.91
2022-11-20T05:23:48.723Z,99808.91
2022-11-20T05:24:52.715Z,99811.09
2022-11-20T05:25:58.707Z,99803.63
2022-11-20T05:27:00.785Z,99807.22
2022-11-20T05:28:02.234Z,99813.63
2022-11-20T05:29:03.870Z,99812.22
2022-11-20T05:30:05.690Z,99802.22
2022-11-20T05:31:07.216Z,99807.50
2022-11-20T05:32:10.624Z,99805.81
2022-11-20T05:33:13.696Z,99803.88
2022-11-20T05:34:15.210Z,99817.50
2022-11-20T05:35:17.569Z,99796.97
2022-11-20T05:37:34.503Z,99798.63
2022-11-20T05:38:35.977Z,99795.59
2022-11-20T05:39:37.597Z,99788.09
2022-11-20T05:40:39.587Z,99792.59
2022-11-20T05:41:41.078Z,99792.25
2022-11-20T05:42:44.654Z,99803.09
2022-11-20T05:43:46.471Z,99792.81
2022-11-20T05:44:48.563Z,99801.16
2022-11-20T05:45:53.817Z,99805.03
2022-11-20T05:46:55.270Z,99805.03
2022-11-20T05:48:01.085Z,99806.38
2022-11-20T05:49:02.580Z,99810.00
2022-11-20T05:50:04.108Z,99805.56
2022-11-20T05:51:06.044Z,99804.72
2022-11-20T05:52:07.554Z,99806.91
2022-11-20T05:53:09.023Z,99811.38
2022-11-20T05:54:10.507Z,99808.59
2022-11-20T05:55:12.590Z,99802.22
2022-11-20T05:56:16.856Z,99809.44
2022-11-20T05:57:18.574Z,99808.03
2022-11-20T05:58:22.829Z,99801.38
2022-11-20T05:59:24.437Z,99798.31
2022-11-20T06:00:25.946Z,99801.09
2022-11-20T06:01:27.493Z,99803.63
2022-11-20T06:02:32.943Z,99792.78
2022-11-20T06:03:34.526Z,99799.16
2022-11-20T06:05:01.175Z,99796.13
2022-11-20T06:06:02.705Z,99783.91
2022-11-20T06:07:07.391Z,99790.56
2022-11-20T06:08:08.952Z,99791.41
2022-11-20T06:09:10.471Z,99792.25
2022-11-20T06:10:12.079Z,99796.97
2022-11-20T06:11:15.090Z,99801.41
2022-11-20T06:12:16.583Z,99808.06
2022-11-20T06:13:18.059Z,99807.81
2022-11-20T06:14:19.512Z,99805.03
2022-11-20T06:15:20.967Z,99811.41
2022-11-20T06:16:22.857Z,99800.91
2022-11-20T06:17:24.347Z,99798.16
2022-11-20T06:18:26.807Z,99792.59
2022-11-20T06:19:28.337Z,99793.66
2022-11-20T06:20:29.775Z,99797.31
2022-11-20T06:21:47.982Z,99795.59
2022-11-20T06:22:49.586Z,99792.25
2022-11-20T06:23:57.174Z,99802.50
2022-11-20T06:24:58.680Z,99795.03
2022-11-20T06:26:07.455Z,99793.09
2022-11-20T06:27:09.646Z,99788.63
2022-11-20T06:28:11.158Z,99788.63
2022-11-20T06:29:12.754Z,99795.84
2022-11-20T06:30:16.904Z,99794.72
2022-11-20T06:31:19.288Z,99790.84
2022-11-20T06:32:20.802Z,99799.75
2022-11-20T06:33:31.035Z,99796.13
2022-11-20T06:34:32.504Z,99797.81
2022-11-20T06:35:36.964Z,99788.63
2022-11-20T06:36:38.582Z,99794.19
2022-11-20T06:37:42.820Z,99783.63
2022-11-20T06:38:44.334Z,99793.34
2022-11-20T06:39:48.859Z,99784.19
2022-11-20T06:40:50.297Z,99786.44
2022-11-20T06:41:57.265Z,99780.88
2022-11-20T06:43:09.921Z,99781.47
2022-11-20T06:44:11.657Z,99788.44
2022-11-20T06:45:13.114Z,99787.63
2022-11-20T06:46:14.864Z,99789.28
2022-11-20T06:47:16.330Z,99788.19
2022-11-20T06:48:17.763Z,99781.53
2022-11-20T06:49:22.014Z,99790.69
2022-11-20T06:50:23.613Z,99785.97
2022-11-20T06:51:25.096Z,99792.38
2022-11-20T06:52:26.580Z,99793.22
2022-11-20T06:53:28.124Z,99788.50
2022-11-20T06:54:35.626Z,99789.31
2022-11-20T06:55:37.067Z,99788.50
2022-11-20T06:56:41.546Z,99790.16
2022-11-20T06:57:53.271Z,99798.75
2022-11-20T06:58:59.564Z,99790.44
2022-11-20T07:00:01.039Z,99794.03
2022-11-20T07:01:03.332Z,99793.22
2022-11-20T07:02:04.868Z,99800.44
2022-11-20T07:03:09.761Z,99794.88
2022-11-20T07:04:13.569Z,99797.66
2022-11-20T07:05:22.536Z,99797.09
2022-11-20T07:06:23.966Z,99808.19
2022-11-20T07:07:25.502Z,99805.41
2022-11-20T07:08:32.237Z,99808.72
2022-11-20T07:09:34.986Z,99800.38
2022-11-20T07:10:41.911Z,99807.88
2022-11-20T07:11:45.681Z,99818.72
2022-11-20T07:12:53.076Z,99818.16
2022-11-20T07:13:54.805Z,99806.78
2022-11-20T07:14:59.558Z,99807.03
2022-11-20T07:16:05.601Z,99797.88
2022-11-20T07:17:18.958Z,99804.84
2022-11-20T07:18:29.546Z,99806.50
2022-11-20T07:19:32.639Z,99810.41
2022-11-20T07:20:36.867Z,99816.53
2022-11-20T07:21:46.097Z,99820.97
2022-11-20T07:23:10.748Z,99818.19
2022-11-20T07:24:17.535Z,99820.97
2022-11-20T07:25:19.041Z,99822.66
2022-11-20T07:26:20.571Z,99824.00
2022-11-20T07:27:34.242Z,99819.31
2022-11-20T07:29:51.218Z,99819.81
2022-11-20T07:31:01.958Z,99815.94
2022-11-20T07:32:03.527Z,99815.09
2022-11-20T07:33:04.972Z,99819.81
2022-11-20T07:34:06.509Z,99827.31
2022-11-20T07:35:08.226Z,99834.28
2022-11-20T07:36:09.717Z,99834.03
2022-11-20T07:37:19.130Z,99825.41
2022-11-20T07:38:20.614Z,99826.00
2022-11-20T07:39:24.963Z,99819.59
2022-11-20T07:40:31.622Z,99829.63
2022-11-20T07:41:33.798Z,99834.94
2022-11-20T07:42:45.649Z,99828.84
2022-11-20T07:43:53.448Z,99822.47
2022-11-20T07:44:54.914Z,99830.53
2022-11-20T07:45:57.246Z,99835.78
2022-11-20T07:46:58.703Z,99834.41
2022-11-20T07:48:07.343Z,99835.25
2022-11-20T07:49:08.843Z,99836.09
2022-11-20T07:50:17.814Z,99843.56
2022-11-20T07:51:19.341Z,99836.59
2022-11-20T07:52:20.854Z,99837.19
2022-11-20T07:53:23.298Z,99839.97
2022-11-20T07:54:26.975Z,99849.69
2022-11-20T07:55:30.684Z,99841.09
2022-11-20T07:56:32.134Z,99837.22
2022-11-20T07:57:33.614Z,99845.28
2022-11-20T07:58:35.586Z,99833.91
2022-11-20T08:00:10.134Z,99838.38
2022-11-20T08:01:26.298Z,99845.56
2022-11-20T08:02:27.759Z,99852.22
2022-11-20T08:03:29.240Z,99852.22
2022-11-20T08:04:30.746Z,99851.13
2022-11-20T08:05:34.588Z,99848.34
2022-11-20T08:06:41.832Z,99838.06
2022-11-20T08:07:46.362Z,99844.47
2022-11-20T08:10:03.675Z,99844.47
2022-11-20T08:11:24.287Z,99849.75
2022-11-20T08:12:53.520Z,99845.03
2022-11-20T08:14:14.494Z,99851.19
2022-11-20T08:15:16.169Z,99847.31
2022-11-20T08:16:20.342Z,99842.59
2022-11-20T08:17:21.786Z,99851.50
2022-11-20T08:18:31.134Z,99845.09
2022-11-20T08:19:39.921Z,99855.38
2022-11-20T08:20:41.718Z,99852.34
2022-11-20T08:21:49.087Z,99851.25
2022-11-20T08:22:50.650Z,99847.63
2022-11-20T08:23:52.148Z,99847.34
2022-11-20T08:24:53.746Z,99850.13
2022-11-20T08:25:57.594Z,99859.31
2022-11-20T08:27:00.181Z,99857.38
2022-11-20T08:28:15.731Z,99857.38
2022-11-20T08:29:22.036Z,99850.44
2022-11-20T08:30:23.965Z,99854.91
2022-11-20T08:31:25.960Z,99857.66
2022-11-20T08:32:27.428Z,99859.34
2022-11-20T08:33:30.864Z,99862.13
2022-11-20T08:34:35.326Z,99868.78
2022-11-20T08:35:39.014Z,99869.63
2022-11-20T08:36:40.543Z,99876.88
2022-11-20T08:37:42.657Z,99870.22
2022-11-20T08:38:50.394Z,99869.13
2022-11-20T08:39:54.509Z,99866.91
2022-11-20T08:41:22.050Z,99863.31
2022-11-20T08:42:23.566Z,99873.03
2022-11-20T08:43:27.698Z,99873.88
2022-11-20T08:44:29.185Z,99878.59
2022-11-20T08:45:34.245Z,99874.69
2022-11-20T08:46:38.471Z,99879.72
2022-11-20T08:47:39.907Z,99875.81
2022-11-20T08:48:41.341Z,99871.09
2022-11-20T08:49:42.872Z,99866.38
2022-11-20T08:50:52.075Z,99880.84
2022-11-20T08:52:03.134Z,99883.06
2022-11-20T08:53:14.628Z,99885.56
2022-11-20T08:54:18.273Z,99875.28
2022-11-20T08:55:19.722Z,99878.66
2022-11-20T08:56:21.191Z,99882.53
2022-11-20T08:57:25.646Z,99887.25
2022-11-20T08:59:18.313Z,99887.25
2022-11-20T09:00:20.482Z,99881.44
2022-11-20T09:01:27.055Z,99877.81
2022-11-20T09:02:34.998Z,99885.03
2022-11-20T09:05:03.994Z,99880.84
2022-11-20T09:06:06.201Z,99880.00
2022-11-20T09:07:07.730Z,99873.09
2022-11-20T09:08:09.395Z,99881.19
2022-11-20T09:09:10.966Z,99882.03
2022-11-20T09:10:28.189Z,99882.88
2022-11-20T09:11:37.041Z,99872.59
2022-11-20T09:12:38.578Z,99883.97
2022-11-20T09:13:40.082Z,99874.25
2022-11-20T09:14:41.571Z,99873.44
2022-11-20T09:15:45.770Z,99872.91
2022-11-20T09:16:48.682Z,99873.75
2022-11-20T09:17:56.845Z,99873.75
2022-11-20T09:19:20.653Z,99877.09
2022-11-20T09:20:20.063Z,99873.19
2022-11-20T09:21:21.652Z,99877.09
2022-11-20T09:22:33.250Z,99873.47
2022-11-20T09:23:37.795Z,99880.44
2022-11-20T09:24:43.701Z,99877.63
2022-11-20T09:26:09.518Z,99882.06
2022-11-20T09:27:11.659Z,99881.81
2022-11-20T09:28:15.767Z,99877.09
2022-11-20T09:29:17.699Z,99886.00
2022-11-20T09:30:19.218Z,99883.22
2022-11-20T09:31:27.224Z,99881.28
2022-11-20T09:32:31.791Z,99887.41
2022-11-20T09:33:33.217Z,99891.63
2022-11-20T09:34:34.799Z,99894.41
2022-11-20T09:35:38.672Z,99893.31
2022-11-20T09:36:40.152Z,99890.25
2022-11-20T09:37:44.302Z,99888.31
2022-11-20T09:38:48.621Z,99891.09
2022-11-20T09:39:56.195Z,99898.31
2022-11-20T09:40:57.650Z,99899.16
2022-11-20T09:42:02.431Z,99895.53
2022-11-20T09:43:09.759Z,99901.63
2022-11-20T09:44:18.330Z,99893.56
2022-11-20T09:47:11.668Z,99890.53
2022-11-20T09:48:34.943Z,99893.88
2022-11-20T09:49:36.387Z,99882.75
2022-11-20T09:50:41.159Z,99878.88
2022-11-20T09:51:57.369Z,99882.22
2022-11-20T09:53:20.001Z,99879.19
2022-11-20T09:54:22.139Z,99876.13
2022-11-20T09:55:23.592Z,99880.59
2022-11-20T09:56:25.091Z,99879.50
2022-11-20T09:57:27.539Z,99883.69
2022-11-20T09:59:01.459Z,99883.38
2022-11-20T10:00:06.375Z,99885.06
2022-11-20T10:01:18.703Z,99883.38
2022-11-20T10:02:30.215Z,99885.63
2022-11-20T10:03:37.201Z,99881.19
2022-11-20T10:04:40.921Z,99880.09
2022-11-20T10:05:46.236Z,99871.75
2022-11-20T10:08:40.362Z,99876.78
2022-11-20T10:09:45.513Z,99877.59
2022-11-20T10:11:00.080Z,99882.91
2022-11-20T10:12:07.965Z,99872.88
2022-11-20T10:13:25.939Z,99879.84
2022-11-20T10:14:27.611Z,99877.34
2022-11-20T10:15:39.806Z,99871.78
2022-11-20T10:17:03.170Z,99865.38
2022-11-20T10:18:23.678Z,99855.91
2022-11-20T10:19:35.488Z,99852.84
2022-11-20T10:20:48.379Z,99858.63
2022-11-20T10:23:25.579Z,99861.66
2022-11-20T10:24:49.398Z,99866.69
2022-11-20T10:25:56.853Z,99871.41
2022-11-20T10:27:01.804Z,99872.56
2022-11-20T10:28:26.906Z,99867.84
2022-11-20T10:29:37.711Z,99866.19
2022-11-20T10:30:41.495Z,99869.53
2022-11-20T10:32:15.004Z,99866.69
2022-11-20T10:33:38.767Z,99859.44
2022-11-20T10:35:09.487Z,99862.50
2022-11-20T10:36:20.497Z,99852.72
2022-11-20T10:37:28.284Z,99859.16
2022-11-20T10:38:55.397Z,99854.72
2022-11-20T10:39:59.460Z,99859.44
2022-11-20T10:41:20.846Z,99857.78
2022-11-20T10:42:41.184Z,99855.25
2022-11-20T10:45:13.206Z,99854.53
2022-11-20T10:46:27.105Z,99856.78
2022-11-20T10:47:29.010Z,99849.59
2022-11-20T10:48:31.161Z,99846.81
2022-11-20T10:49:33.687Z,99847.38
2022-11-20T10:50:36.046Z,99847.97
2022-11-20T10:51:56.170Z,99843.81
2022-11-20T10:53:03.642Z,99844.09
2022-11-20T10:54:25.120Z,99839.38
2022-11-20T10:55:38.458Z,99847.44
2022-11-20T10:56:49.491Z,99847.44
2022-11-20T10:58:09.919Z,99843.59
2022-11-20T10:59:20.696Z,99845.00
2022-11-20T11:00:22.382Z,99845.84
2022-11-20T11:01:24.406Z,99848.06
2022-11-20T11:02:34.482Z,99845.88
2022-11-20T11:03:38.770Z,99839.75
2022-11-20T11:04:41.796Z,99846.16
2022-11-20T11:05:56.113Z,99856.72
2022-11-20T11:07:09.158Z,99846.69
2022-11-20T11:08:12.151Z,99845.31
2022-11-20T11:09:34.733Z,99852.50
2022-11-20T11:10:47.810Z,99841.00
2022-11-20T11:11:49.791Z,99846.31
2022-11-20T11:12:53.640Z,99841.88
2022-11-20T11:14:13.130Z,99832.97
2022-11-20T11:15:28.135Z,99838.50
2022-11-20T11:16:29.943Z,99829.91
2022-11-20T11:17:32.590Z,99819.63
2022-11-20T11:18:35.127Z,99819.69
2022-11-20T11:19:45.502Z,99824.44
2022-11-20T11:20:50.771Z,99825.06
2022-11-20T11:21:56.039Z,99815.38
2022-11-20T11:22:58.553Z,99816.00
2022-11-20T11:24:26.820Z,99816.59
2022-11-20T11:25:51.910Z,99813.28
2022-11-20T11:27:13.698Z,99811.13
2022-11-20T11:28:21.967Z,99807.47
2022-11-20T11:29:23.651Z,99798.63
2022-11-20T11:30:28.691Z,99807.31
2022-11-20T11:31:31.489Z,99809.56
2022-11-20T11:32:32.966Z,99806.53
2022-11-20T11:33:37.061Z,99808.22
2022-11-20T11:34:44.291Z,99802.38
2022-11-20T11:35:49.911Z,99797.97
2022-11-20T11:36:59.134Z,99802.44
2022-11-20T11:38:12.140Z,99798.00
2022-11-20T11:39:15.392Z,99794.66
2022-11-20T11:40:23.822Z,99791.06
2022-11-20T11:41:26.573Z,99791.31
2022-11-20T11:42:31.246Z,99795.25
2022-11-20T11:43:55.587Z,99788.56
2022-11-20T11:45:18.466Z,99785.50
2022-11-20T11:47:44.204Z,99790.25
2022-11-20T11:48:55.278Z,99785.22
2022-11-20T11:50:23.081Z,99787.47
2022-11-20T11:51:26.266Z,99789.13
2022-11-20T11:52:27.756Z,99782.44
2022-11-20T11:53:29.253Z,99776.63
2022-11-20T11:54:50.354Z,99781.59
2022-11-20T11:55:54.982Z,99779.09
2022-11-20T11:56:59.214Z,99776.03
2022-11-20T11:58:12.999Z,99774.38
2022-11-20T11:59:20.268Z,99775.16
2022-11-20T12:00:22.372Z,99770.16
2022-11-20T12:01:39.861Z,99771.81
2022-11-20T12:02:58.319Z,99773.78
2022-11-20T12:04:21.578Z,99775.72
2022-11-20T12:05:31.949Z,99775.19
2022-11-20T12:06:36.195Z,99764.31
2022-11-20T12:07:47.072Z,99765.69
2022-11-20T12:08:51.841Z,99774.63
2022-11-20T12:09:53.938Z,99772.38
2022-11-20T12:10:55.799Z,99774.06
2022-11-20T12:12:00.046Z,99765.16
2022-11-20T12:13:30.475Z,99763.47
2022-11-20T12:14:38.415Z,99755.13
2022-11-20T12:15:39.911Z,99745.38
2022-11-20T12:16:41.370Z,99760.69
2022-11-20T12:17:42.858Z,99761.28
2022-11-20T12:18:45.763Z,99761.84
2022-11-20T12:20:12.370Z,99774.66
2022-11-20T12:21:18.816Z,99756.25
2022-11-20T12:22:27.391Z,99757.94
2022-11-20T12:28:18.675Z,99740.38
2022-11-20T12:29:40.396Z,99752.06
2022-11-20T12:31:08.330Z,99740.09
2022-11-20T12:32:19.904Z,99746.81
2022-11-20T12:33:30.540Z,99751.81
2022-11-20T12:34:41.151Z,99747.63
2022-11-20T12:35:49.007Z,99744.56
2022-11-20T12:36:53.482Z,99732.31
2022-11-20T12:38:13.273Z,99735.41
2022-11-20T12:39:17.575Z,99735.69
2022-11-20T12:40:24.848Z,99732.88
2022-11-20T12:42:01.600Z,99738.72
2022-11-20T12:43:45.708Z,99739.84
2022-11-20T12:45:17.403Z,99732.88
2022-11-20T12:46:37.085Z,99734.56
2022-11-20T12:47:44.315Z,99731.50
2022-11-20T12:48:48.682Z,99732.31
2022-11-20T12:49:58.069Z,99734.81
2022-11-20T12:51:15.154Z,99732.59
2022-11-20T12:52:24.914Z,99733.44
2022-11-20T12:53:35.318Z,99730.09
2022-11-20T12:55:15.805Z,99731.78
2022-11-20T12:56:41.816Z,99725.09
2022-11-20T12:57:50.123Z,99723.13
2022-11-20T12:59:25.252Z,99727.31
2022-11-20T13:00:27.079Z,99723.13
2022-11-20T13:01:46.105Z,99718.94
2022-11-20T13:02:56.786Z,99715.59
2022-11-20T13:04:03.273Z,99717.81
2022-11-20T13:05:25.714Z,99720.06
2022-11-20T13:06:30.749Z,99714.22
2022-11-20T13:07:34.958Z,99712.81
2022-11-20T13:08:48.645Z,99718.94
2022-11-20T13:09:50.659Z,99706.13
2022-11-20T13:10:58.187Z,99711.13
2022-11-20T13:12:21.639Z,99715.31
2022-11-20T13:13:43.348Z,99712.78
2022-11-20T13:14:47.551Z,99715.00
2022-11-20T13:15:49.062Z,99720.03
2022-11-20T13:17:11.282Z,99713.06
2022-11-20T13:18:12.890Z,99699.66
2022-11-20T13:19:17.603Z,99706.63
2022-11-20T13:20:19.827Z,99702.41
2022-11-20T13:21:22.375Z,99716.13
2022-11-20T13:22:42.740Z,99701.06
2022-11-20T13:23:44.823Z,99692.38
2022-11-20T13:24:50.930Z,99695.72
2022-11-20T13:25:53.723Z,99696.56
2022-11-20T13:27:05.057Z,99691.53